Portada
METAR-TAF:

METAR-TAF

Aeroports :

Fairhope, Alabama, Estats Units d'Amèrica

latitud: 30-27-38N, longitud: 087-52-37W, altitud: 28 m

Observació

L'informe es va fer fa 29 minuts, a les 13:55 UTC
Vent 4 kt del Nord/Nord-Est
Temperatura 13°C
Humitat 67%
Pressió 1017 hPa
Visibilitat: 16.1 km
Cel clar

METAR: KCQF 011355Z AUTO 03004KT 10SM CLR 13/07 A3003 RMK AO2

Hora: 09:24 (14:24 UTC)


TAF: manca

Observacions i pronòstics meteorològics de més de 4000 aeroports (METAR i TAF).

Les estacions disponibles són els punts grocs i vermells al mapa.

Posi el ratolí al punt desitjat per veure el nom de l'estació.

Feu clic per veure les observacions i els pronòstics meteorològics.

Per canviar el mapa: feu clic els botons verds amb una creu de color negre per apropar; al botó verd amb un guió per allunyar la imatge; o en les fletxes verdes per a mapes adjacents.


METAR-TAF: